Time;durP1;ratioP1;P1;durP2;ratioP2;P2;SDS_P1;SDS_P2;PMS_P1;PMS_P2;Temp;Humidity;BMP_temperature;BMP_pressure;BME280_temperature;BME280_humidity;BME280_pressure;Samples;Min_cycle;Max_cycle;Signal;HPM_P1;HPM_P2
2021/12/22 00:00:51;;;;;;;;;;;4.00;76.20;;;;;;5036138;28;20045;-66
2021/12/22 00:03:17;;;;;;;;;;;3.90;76.30;;;;;;5047651;28;19954;-66
2021/12/22 00:05:45;;;;;;;;;;;3.80;77.20;;;;;;5055992;28;20041;-66
2021/12/22 00:08:12;;;;;;;;;;;3.70;77.30;;;;;;5055868;28;19941;-67
2021/12/22 00:10:38;;;;;;;;;;;3.80;77.50;;;;;;5034575;28;19943;-66
2021/12/22 00:13:04;;;;;;;;;;;3.90;77.20;;;;;;5035943;28;19945;-66
2021/12/22 00:15:30;;;;;;;;;;;3.90;77.20;;;;;;5035929;28;20443;-67
2021/12/22 00:17:55;;;;;;;;;;;3.90;77.40;;;;;;5036135;28;20452;-66
2021/12/22 00:20:21;;;;;;;;;;;4.00;77.30;;;;;;5035826;28;20068;-66
2021/12/22 00:22:46;;;;;;;;;;;4.00;77.40;;;;;;5035813;28;20037;-66
2021/12/22 00:25:12;;;;;;;;;;;3.90;77.60;;;;;;5035776;28;19937;-66
2021/12/22 00:27:38;;;;;;;;;;;3.90;77.70;;;;;;5034343;28;19949;-66
2021/12/22 00:30:05;;;;;;;;;;;4.00;77.20;;;;;;5045431;28;20033;-66
2021/12/22 00:32:33;;;;;;;;;;;3.70;78.00;;;;;;5055038;28;19949;-66
2021/12/22 00:34:58;;;;;;;;;;;3.50;78.60;;;;;;5055518;28;19943;-66
2021/12/22 00:37:26;;;;;;;;;;;3.50;79.20;;;;;;5055431;28;20041;-66
2021/12/22 00:39:53;;;;;;;;;;;3.50;79.10;;;;;;5055366;28;19955;-66
2021/12/22 00:42:19;;;;;;;;;;;3.50;78.70;;;;;;5055323;28;19973;-66
2021/12/22 00:44:50;;;;;;;;;;;3.60;78.80;;;;;;5055268;28;19945;-66
2021/12/22 00:47:16;;;;;;;;;;;3.70;78.80;;;;;;5055274;28;20004;-66
2021/12/22 00:49:42;;;;;;;;;;;3.70;78.80;;;;;;5040176;28;20075;-66
2021/12/22 00:52:07;;;;;;;;;;;3.80;78.70;;;;;;5035291;28;19989;-66
2021/12/22 00:54:33;;;;;;;;;;;3.90;78.30;;;;;;5035228;28;20036;-66
2021/12/22 00:57:05;;;;;;;;;;;4.00;77.90;;;;;;5035174;28;19943;-66
2021/12/22 00:59:32;;;;;;;;;;;4.00;78.00;;;;;;5033598;28;20000;-66
2021/12/22 01:01:58;;;;;;;;;;;3.80;79.00;;;;;;5035091;28;19945;-66
2021/12/22 01:04:24;;;;;;;;;;;3.50;79.50;;;;;;5037533;28;19945;-67
2021/12/22 01:06:49;;;;;;;;;;;3.40;80.10;;;;;;5054228;28;19962;-67
2021/12/22 01:09:15;;;;;;;;;;;3.30;80.30;;;;;;5044606;28;20013;-67
2021/12/22 01:11:40;;;;;;;;;;;3.20;80.70;;;;;;5034913;28;20388;-67
2021/12/22 01:14:06;;;;;;;;;;;3.20;81.10;;;;;;5034853;28;19988;-67
2021/12/22 01:16:32;;;;;;;;;;;3.20;81.20;;;;;;5033507;28;19940;-67
2021/12/22 01:19:01;;;;;;;;;;;3.10;81.40;;;;;;5034708;28;19957;-67
2021/12/22 01:21:42;;;;;;;;;;;3.00;81.60;;;;;;5034719;28;19991;-67
2021/12/22 01:24:15;;;;;;;;;;;3.00;81.90;;;;;;5042675;28;19943;-67
2021/12/22 01:26:46;;;;;;;;;;;2.90;82.10;;;;;;5054350;28;19956;-67
2021/12/22 01:29:12;;;;;;;;;;;2.90;82.00;;;;;;5054456;28;19948;-67
2021/12/22 01:31:40;;;;;;;;;;;2.90;82.20;;;;;;5054114;28;19944;-67
2021/12/22 01:34:06;;;;;;;;;;;2.80;82.60;;;;;;5054393;28;20026;-67
2021/12/22 01:36:32;;;;;;;;;;;2.70;82.60;;;;;;5054353;28;19984;-67
2021/12/22 01:38:57;;;;;;;;;;;2.70;82.60;;;;;;5054239;28;20416;-67
2021/12/22 01:41:23;;;;;;;;;;;2.80;82.70;;;;;;5054221;28;20043;-67
2021/12/22 01:43:49;;;;;;;;;;;2.70;82.60;;;;;;5040607;28;19987;-67
2021/12/22 01:49:09;;;;;;;;;;;2.70;82.70;;;;;;5034234;28;19951;-67
2021/12/22 01:49:33;;;;;;;;;;;2.60;82.60;;;;;;5034121;28;20340;-67
2021/12/22 01:52:06;;;;;;;;;;;2.60;82.70;;;;;;5032922;28;19944;-67
2021/12/22 01:54:33;;;;;;;;;;;2.50;83.10;;;;;;5034088;28;19966;-67
2021/12/22 01:57:01;;;;;;;;;;;2.40;83.40;;;;;;5032778;28;19939;-67
2021/12/22 01:59:27;;;;;;;;;;;2.30;83.50;;;;;;5034228;28;19975;-67
2021/12/22 02:01:53;;;;;;;;;;;2.40;83.40;;;;;;5038131;28;20003;-67
2021/12/22 02:04:19;;;;;;;;;;;2.40;83.30;;;;;;5036938;28;20472;-67
2021/12/22 02:06:45;;;;;;;;;;;2.40;83.20;;;;;;5033881;28;19936;-67
2021/12/22 02:09:15;;;;;;;;;;;2.30;83.30;;;;;;5033759;28;19978;-67
2021/12/22 02:11:40;;;;;;;;;;;2.40;83.50;;;;;;5033829;28;20043;-67
2021/12/22 02:14:07;;;;;;;;;;;2.40;83.50;;;;;;5032477;28;20031;-67
2021/12/22 02:16:37;;;;;;;;;;;2.50;83.40;;;;;;5032366;28;20324;-67
2021/12/22 02:19:05;;;;;;;;;;;2.80;82.10;;;;;;5032296;28;19967;-67
2021/12/22 02:21:35;;;;;;;;;;;3.00;81.20;;;;;;5042557;28;19943;-67
2021/12/22 02:24:01;;;;;;;;;;;2.90;80.90;;;;;;5053432;28;19955;-67
2021/12/22 02:26:37;;;;;;;;;;;2.70;81.70;;;;;;5053009;28;19953;-67
2021/12/22 02:29:06;;;;;;;;;;;2.60;82.30;;;;;;5053660;28;19950;-67
2021/12/22 02:31:42;;;;;;;;;;;2.50;82.50;;;;;;5053564;28;20030;-67
2021/12/22 02:34:14;;;;;;;;;;;2.40;82.80;;;;;;5053338;28;19950;-67
2021/12/22 02:36:40;;;;;;;;;;;2.30;83.20;;;;;;5053212;28;20412;-67
2021/12/22 02:39:07;;;;;;;;;;;2.10;83.90;;;;;;5053135;28;20017;-67
2021/12/22 02:41:36;;;;;;;;;;;2.00;84.30;;;;;;5035393;28;19953;-67
2021/12/22 02:44:02;;;;;;;;;;;2.00;84.30;;;;;;5033294;28;19942;-67
2021/12/22 02:46:30;;;;;;;;;;;2.30;84.20;;;;;;5033259;28;19944;-67
2021/12/22 02:48:56;;;;;;;;;;;2.50;83.40;;;;;;5031939;28;19945;-67
2021/12/22 02:51:22;;;;;;;;;;;2.50;82.50;;;;;;5033124;28;20395;-67
2021/12/22 02:54:01;;;;;;;;;;;2.50;82.20;;;;;;5033286;28;19949;-67
2021/12/22 02:56:37;;;;;;;;;;;2.40;82.40;;;;;;5031874;28;19947;-67
2021/12/22 03:04:27;;;;;;;;;;;2.20;83.00;;;;;;5053022;28;20348;-67
2021/12/22 03:09:29;;;;;;;;;;;1.90;84.30;;;;;;5053136;28;20336;-67
2021/12/22 03:11:56;;;;;;;;;;;1.90;84.60;;;;;;5052890;28;19944;-67
2021/12/22 03:14:22;;;;;;;;;;;1.90;84.60;;;;;;5052900;28;20220;-67
2021/12/22 03:16:48;;;;;;;;;;;1.90;84.60;;;;;;5042785;28;20536;-67
2021/12/22 03:19:16;;;;;;;;;;;2.00;84.30;;;;;;5032850;28;20014;-67
2021/12/22 03:21:42;;;;;;;;;;;2.10;84.00;;;;;;5032936;28;19987;-67
2021/12/22 03:24:09;;;;;;;;;;;2.00;83.80;;;;;;5032957;28;19998;-67
2021/12/22 03:26:41;;;;;;;;;;;2.00;83.70;;;;;;5031475;28;20392;-67
2021/12/22 03:29:06;;;;;;;;;;;2.00;83.70;;;;;;5032875;28;19941;-67
2021/12/22 03:31:32;;;;;;;;;;;2.10;83.90;;;;;;5032850;28;19943;-67
2021/12/22 03:33:57;;;;;;;;;;;2.20;83.70;;;;;;5032794;28;20002;-67
2021/12/22 03:36:23;;;;;;;;;;;2.30;83.50;;;;;;5046939;28;20042;-67
2021/12/22 03:38:49;;;;;;;;;;;2.40;82.80;;;;;;5052565;28;20011;-67
2021/12/22 03:41:14;;;;;;;;;;;2.50;82.00;;;;;;5050874;28;20467;-67
2021/12/22 03:43:40;;;;;;;;;;;2.60;81.60;;;;;;5034729;28;19945;-67
2021/12/22 03:46:05;;;;;;;;;;;2.50;81.30;;;;;;5034732;28;19950;-67
2021/12/22 03:48:31;;;;;;;;;;;2.50;81.40;;;;;;5052797;28;20045;-67
2021/12/22 03:50:57;;;;;;;;;;;2.40;81.10;;;;;;5051402;28;19978;-67
2021/12/22 03:53:23;;;;;;;;;;;2.20;81.40;;;;;;5032588;28;20410;-67
2021/12/22 03:55:48;;;;;;;;;;;2.10;82.00;;;;;;5032594;28;20022;-67
2021/12/22 03:58:14;;;;;;;;;;;2.00;82.60;;;;;;5032399;28;20436;-67
2021/12/22 04:00:40;;;;;;;;;;;2.00;82.80;;;;;;5032597;28;19946;-67
2021/12/22 04:03:10;;;;;;;;;;;2.00;82.90;;;;;;5032560;28;19950;-67
2021/12/22 04:05:35;;;;;;;;;;;2.00;82.80;;;;;;5032746;28;19936;-67
2021/12/22 04:08:01;;;;;;;;;;;2.00;83.20;;;;;;5036056;28;19951;-67
2021/12/22 04:10:26;;;;;;;;;;;2.10;83.10;;;;;;5040303;28;19963;-67
2021/12/22 04:12:55;;;;;;;;;;;2.10;82.90;;;;;;5038016;28;19956;-67
2021/12/22 04:15:22;;;;;;;;;;;2.20;82.70;;;;;;5055851;28;19949;-67
2021/12/22 04:17:48;;;;;;;;;;;2.20;82.70;;;;;;5055861;28;20219;-67
2021/12/22 04:20:14;;;;;;;;;;;2.20;82.60;;;;;;5055719;28;20195;-67
2021/12/22 04:22:39;;;;;;;;;;;2.10;82.40;;;;;;5055721;28;19981;-67
2021/12/22 04:25:07;;;;;;;;;;;1.90;83.40;;;;;;5055624;28;19937;-67
2021/12/22 04:27:32;;;;;;;;;;;1.70;84.30;;;;;;5048640;28;19969;-67
2021/12/22 04:29:58;;;;;;;;;;;1.70;84.60;;;;;;5035649;28;19939;-67
2021/12/22 04:32:24;;;;;;;;;;;1.80;84.80;;;;;;5035615;28;20331;-67
2021/12/22 04:34:49;;;;;;;;;;;2.00;84.90;;;;;;5034281;28;20432;-67
2021/12/22 04:37:15;;;;;;;;;;;2.10;84.80;;;;;;5035487;28;19938;-67
2021/12/22 04:39:40;;;;;;;;;;;2.30;84.10;;;;;;5035405;28;20437;-67
2021/12/22 04:42:06;;;;;;;;;;;2.40;83.40;;;;;;5035448;28;20315;-67
2021/12/22 04:44:32;;;;;;;;;;;2.30;82.70;;;;;;5035372;28;20391;-67
2021/12/22 04:46:59;;;;;;;;;;;2.20;82.70;;;;;;5043823;28;19961;-67
2021/12/22 04:49:24;;;;;;;;;;;2.10;82.90;;;;;;5054895;28;19946;-67
2021/12/22 04:51:53;;;;;;;;;;;1.80;83.60;;;;;;5055188;28;19994;-67
2021/12/22 04:56:53;;;;;;;;;;;1.40;85.70;;;;;;5055191;28;19936;-67
2021/12/22 04:59:19;;;;;;;;;;;1.40;88.20;;;;;;5054781;28;19986;-67
2021/12/22 05:01:45;;;;;;;;;;;1.40;88.20;;;;;;5054974;28;20385;-67
2021/12/22 05:04:10;;;;;;;;;;;1.40;88.10;;;;;;5039922;28;20422;-67
2021/12/22 05:06:36;;;;;;;;;;;1.40;88.30;;;;;;5035024;28;19991;-67
2021/12/22 05:09:02;;;;;;;;;;;1.30;87.50;;;;;;5036017;28;19968;-67
2021/12/22 05:11:28;;;;;;;;;;;1.20;88.00;;;;;;5034990;28;20026;-66
2021/12/22 05:13:53;;;;;;;;;;;1.10;88.30;;;;;;5034937;28;20371;-67
2021/12/22 05:16:19;;;;;;;;;;;1.10;88.70;;;;;;5033585;28;20385;-67
2021/12/22 05:18:59;;;;;;;;;;;1.10;88.30;;;;;;5034739;28;20013;-67
2021/12/22 05:21:25;;;;;;;;;;;1.10;88.30;;;;;;5035804;28;19952;-67
2021/12/22 05:23:51;;;;;;;;;;;1.00;88.50;;;;;;5048970;28;19959;-67
2021/12/22 05:26:17;;;;;;;;;;;1.00;89.40;;;;;;5034790;28;19965;-67
2021/12/22 05:28:42;;;;;;;;;;;1.00;89.30;;;;;;5034573;28;20400;-67
2021/12/22 05:31:08;;;;;;;;;;;0.90;89.30;;;;;;5034519;28;19976;-67
2021/12/22 05:33:34;;;;;;;;;;;0.90;89.40;;;;;;5033209;28;19996;-67
2021/12/22 05:35:59;;;;;;;;;;;0.80;90.00;;;;;;5034435;28;20391;-67
2021/12/22 05:38:25;;;;;;;;;;;0.80;90.00;;;;;;5034224;28;19964;-67
2021/12/22 05:40:50;;;;;;;;;;;0.70;90.10;;;;;;5035049;28;19955;-67
2021/12/22 05:43:16;;;;;;;;;;;0.80;90.00;;;;;;5034033;28;19951;-67
2021/12/22 05:45:42;;;;;;;;;;;0.80;90.20;;;;;;5033889;28;19949;-67
2021/12/22 05:48:07;;;;;;;;;;;0.70;90.30;;;;;;5034061;28;20409;-66
2021/12/22 05:50:33;;;;;;;;;;;0.70;89.60;;;;;;5034191;28;19936;-67
2021/12/22 05:52:58;;;;;;;;;;;0.70;89.40;;;;;;5034090;28;19937;-66
2021/12/22 05:55:24;;;;;;;;;;;0.70;88.90;;;;;;5033984;28;20092;-67
2021/12/22 05:57:49;;;;;;;;;;;0.70;87.90;;;;;;5041485;28;20003;-67
2021/12/22 06:00:15;;;;;;;;;;;0.60;88.20;;;;;;5034000;28;20059;-67
2021/12/22 06:02:41;;;;;;;;;;;0.70;88.00;;;;;;5052118;28;19958;-67
2021/12/22 06:05:07;;;;;;;;;;;0.70;88.00;;;;;;5052730;28;19951;-67
2021/12/22 06:07:33;;;;;;;;;;;0.70;87.80;;;;;;5052694;28;19948;-67
2021/12/22 06:09:58;;;;;;;;;;;0.70;87.80;;;;;;5051808;28;19959;-67
2021/12/22 06:12:24;;;;;;;;;;;0.70;87.90;;;;;;5052382;28;20467;-67
2021/12/22 06:14:49;;;;;;;;;;;0.60;87.90;;;;;;5052159;28;19955;-67
2021/12/22 06:17:15;;;;;;;;;;;0.60;88.10;;;;;;5043785;28;19948;-67
2021/12/22 06:19:40;;;;;;;;;;;0.60;88.30;;;;;;5052128;28;20376;-67
2021/12/22 06:22:06;;;;;;;;;;;0.70;88.20;;;;;;5050439;28;20008;-67
2021/12/22 06:24:32;;;;;;;;;;;0.80;87.80;;;;;;5053042;28;19946;-67
2021/12/22 06:26:57;;;;;;;;;;;0.80;87.70;;;;;;5033986;28;19948;-67
2021/12/22 06:29:23;;;;;;;;;;;0.70;87.80;;;;;;5049578;28;20413;-66
2021/12/22 06:31:49;;;;;;;;;;;0.60;87.80;;;;;;5046076;28;19949;-67
2021/12/22 06:34:14;;;;;;;;;;;0.50;89.10;;;;;;5045974;28;19994;-67
2021/12/22 06:36:40;;;;;;;;;;;0.40;89.20;;;;;;5047118;28;19961;-67
2021/12/22 06:39:06;;;;;;;;;;;0.50;89.50;;;;;;5016970;28;19961;-67
2021/12/22 06:41:32;;;;;;;;;;;0.50;89.60;;;;;;5051615;28;20408;-66
2021/12/22 06:43:58;;;;;;;;;;;0.60;89.20;;;;;;5051835;28;19950;-67
2021/12/22 06:46:23;;;;;;;;;;;0.50;89.40;;;;;;5044695;28;20311;-67
2021/12/22 06:48:49;;;;;;;;;;;0.60;89.30;;;;;;5033563;28;19962;-66
2021/12/22 06:51:14;;;;;;;;;;;0.70;88.80;;;;;;5041698;28;19944;-67
2021/12/22 06:53:40;;;;;;;;;;;0.60;88.40;;;;;;5043825;28;19950;-67
2021/12/22 06:56:05;;;;;;;;;;;0.60;88.30;;;;;;5016055;28;20013;-67
2021/12/22 06:58:31;;;;;;;;;;;0.50;88.60;;;;;;5064929;23;20441;-67
2021/12/22 07:00:57;;;;;;;;;;;0.50;89.20;;;;;;5089526;28;19949;-67
2021/12/22 07:03:22;;;;;;;;;;;0.50;89.30;;;;;;5075497;28;20040;-67
2021/12/22 07:05:48;;;;;;;;;;;0.40;89.40;;;;;;5069663;28;20055;-67
2021/12/22 07:08:13;;;;;;;;;;;0.50;89.60;;;;;;5091221;28;19964;-67
2021/12/22 07:10:39;;;;;;;;;;;0.40;89.70;;;;;;5090890;28;19973;-67
2021/12/22 07:13:06;;;;;;;;;;;0.50;89.70;;;;;;5087087;28;19957;-66
2021/12/22 07:15:32;;;;;;;;;;;0.50;89.70;;;;;;5092287;28;19941;-66
2021/12/22 07:17:58;;;;;;;;;;;0.50;89.40;;;;;;5092043;28;20372;-66
2021/12/22 07:20:24;;;;;;;;;;;0.50;89.30;;;;;;5072312;28;20312;-67
2021/12/22 07:22:50;;;;;;;;;;;0.60;89.10;;;;;;5072075;28;19995;-67
2021/12/22 07:25:18;;;;;;;;;;;0.70;88.80;;;;;;5083830;28;20421;-67
2021/12/22 07:27:44;;;;;;;;;;;0.80;88.70;;;;;;5087489;28;19948;-67
2021/12/22 07:30:10;;;;;;;;;;;0.90;88.90;;;;;;5070231;28;19975;-67
2021/12/22 07:32:35;;;;;;;;;;;0.90;88.40;;;;;;5091441;28;20043;-66
2021/12/22 07:35:03;;;;;;;;;;;0.80;88.10;;;;;;5089754;28;20009;-67
2021/12/22 07:37:31;;;;;;;;;;;0.80;88.40;;;;;;5083827;28;19947;-66
2021/12/22 07:39:57;;;;;;;;;;;1.00;89.30;;;;;;5075329;28;20338;-66
2021/12/22 07:42:22;;;;;;;;;;;1.10;88.60;;;;;;5075961;28;19952;-66
2021/12/22 07:44:48;;;;;;;;;;;1.20;88.20;;;;;;5088412;28;19980;-67
2021/12/22 07:47:13;;;;;;;;;;;1.30;88.40;;;;;;5082819;28;20046;-67
2021/12/22 07:49:39;;;;;;;;;;;1.50;88.20;;;;;;5087280;28;19946;-66
2021/12/22 07:52:05;;;;;;;;;;;1.70;87.70;;;;;;5095623;28;20034;-67
2021/12/22 07:54:30;;;;;;;;;;;1.90;87.40;;;;;;5090275;28;20028;-67
2021/12/22 07:56:56;;;;;;;;;;;2.00;86.80;;;;;;5093907;28;20306;-67
2021/12/22 07:59:21;;;;;;;;;;;2.20;86.30;;;;;;5092411;28;20001;-67
2021/12/22 08:01:47;;;;;;;;;;;2.20;86.10;;;;;;5090286;28;19978;-67
2021/12/22 08:04:12;;;;;;;;;;;2.20;86.10;;;;;;5073258;28;19945;-67
2021/12/22 08:06:38;;;;;;;;;;;2.40;86.00;;;;;;5073641;28;19965;-67
2021/12/22 08:09:03;;;;;;;;;;;2.50;85.90;;;;;;5093442;28;20437;-67
2021/12/22 08:11:29;;;;;;;;;;;2.70;85.00;;;;;;5089997;28;19949;-67
2021/12/22 08:13:55;;;;;;;;;;;2.80;84.40;;;;;;5095021;28;19955;-67
2021/12/22 08:16:20;;;;;;;;;;;2.90;84.30;;;;;;5076595;28;19946;-67
2021/12/22 08:18:46;;;;;;;;;;;2.90;84.10;;;;;;5094775;28;20069;-67
2021/12/22 08:21:12;;;;;;;;;;;3.00;83.90;;;;;;5076305;28;19964;-67
2021/12/22 08:23:37;;;;;;;;;;;3.10;82.80;;;;;;5094492;28;20418;-67
2021/12/22 08:26:03;;;;;;;;;;;3.10;82.10;;;;;;5095262;28;19950;-67
2021/12/22 08:28:28;;;;;;;;;;;3.20;82.30;;;;;;5094698;28;19948;-67
2021/12/22 08:30:54;;;;;;;;;;;3.20;82.20;;;;;;5094143;28;19950;-67
2021/12/22 08:33:26;;;;;;;;;;;3.20;81.90;;;;;;5094696;28;20042;-67
2021/12/22 08:38:53;;;;;;;;;;;3.30;81.60;;;;;;5090166;28;20050;-67
2021/12/22 08:41:29;;;;;;;;;;;3.40;81.30;;;;;;5074484;28;20403;-67
2021/12/22 08:43:56;;;;;;;;;;;3.50;80.50;;;;;;5094587;28;19947;-67
2021/12/22 08:46:23;;;;;;;;;;;3.60;80.00;;;;;;5100302;28;19950;-67
2021/12/22 08:48:48;;;;;;;;;;;3.70;79.60;;;;;;5093318;28;19949;-67
2021/12/22 08:51:14;;;;;;;;;;;3.70;79.30;;;;;;5088310;28;20400;-66
2021/12/22 08:53:40;;;;;;;;;;;3.80;78.90;;;;;;5092248;28;20042;-67
2021/12/22 08:56:06;;;;;;;;;;;3.90;79.10;;;;;;5092578;28;19941;-67
2021/12/22 08:58:31;;;;;;;;;;;4.00;78.70;;;;;;5090359;28;20082;-66
2021/12/22 09:00:57;;;;;;;;;;;4.20;78.20;;;;;;5087135;28;19947;-67
2021/12/22 09:03:22;;;;;;;;;;;4.30;77.70;;;;;;5091536;28;19953;-67
2021/12/22 09:05:48;;;;;;;;;;;4.40;77.80;;;;;;5066390;28;19959;-67
2021/12/22 09:08:14;;;;;;;;;;;4.50;77.20;;;;;;5093842;28;19947;-67
2021/12/22 09:10:39;;;;;;;;;;;4.50;77.20;;;;;;5094466;28;19959;-67
2021/12/22 09:13:05;;;;;;;;;;;4.70;77.40;;;;;;5075995;28;19953;-67
2021/12/22 09:15:30;;;;;;;;;;;4.80;77.20;;;;;;5094545;28;19950;-67
2021/12/22 09:17:56;;;;;;;;;;;5.00;76.30;;;;;;5084901;28;19954;-67
2021/12/22 09:20:22;;;;;;;;;;;5.10;76.30;;;;;;5094451;28;19970;-67
2021/12/22 09:22:47;;;;;;;;;;;5.20;75.30;;;;;;5076343;28;19946;-67
2021/12/22 09:25:13;;;;;;;;;;;5.30;74.00;;;;;;5096041;28;20311;-67
2021/12/22 09:27:39;;;;;;;;;;;5.40;73.80;;;;;;5094275;28;20319;-67
2021/12/22 09:30:05;;;;;;;;;;;5.40;73.90;;;;;;5093862;28;19998;-67
2021/12/22 09:32:30;;;;;;;;;;;5.50;73.80;;;;;;5093944;28;19940;-67
2021/12/22 09:34:56;;;;;;;;;;;5.60;73.80;;;;;;5093372;28;19965;-67
2021/12/22 09:37:21;;;;;;;;;;;5.80;72.80;;;;;;5093537;28;19961;-67
2021/12/22 09:39:47;;;;;;;;;;;5.90;72.30;;;;;;5075638;28;19972;-67
2021/12/22 09:42:12;;;;;;;;;;;6.00;71.90;;;;;;5093134;28;19948;-67
2021/12/22 09:44:44;;;;;;;;;;;6.10;71.90;;;;;;5094073;28;20441;-67
2021/12/22 09:47:10;;;;;;;;;;;6.20;72.10;;;;;;5073494;28;19952;-67
2021/12/22 09:52:19;;;;;;;;;;;6.40;71.70;;;;;;5099516;28;19974;-67
2021/12/22 09:54:49;;;;;;;;;;;6.50;70.10;;;;;;5094968;28;19951;-67
2021/12/22 09:57:17;;;;;;;;;;;6.70;69.20;;;;;;5081628;28;20490;-67
2021/12/22 09:59:43;;;;;;;;;;;6.80;69.00;;;;;;5078674;28;19977;-67
2021/12/22 10:02:09;;;;;;;;;;;6.80;69.50;;;;;;5096003;28;20012;-67
2021/12/22 10:04:35;;;;;;;;;;;6.90;69.50;;;;;;5093244;28;20336;-67
2021/12/22 10:07:01;;;;;;;;;;;6.80;69.70;;;;;;5093354;28;20298;-67
2021/12/22 10:09:27;;;;;;;;;;;6.90;70.20;;;;;;5093068;28;20482;-67
2021/12/22 10:11:52;;;;;;;;;;;7.00;70.10;;;;;;5093203;28;19951;-67
2021/12/22 10:14:19;;;;;;;;;;;7.10;69.30;;;;;;5093481;28;19949;-67
2021/12/22 10:16:47;;;;;;;;;;;7.10;69.40;;;;;;5074375;28;19949;-67
2021/12/22 10:19:12;;;;;;;;;;;7.20;69.10;;;;;;5092892;28;19965;-67
2021/12/22 10:21:52;;;;;;;;;;;7.40;68.60;;;;;;5093633;28;19991;-67
2021/12/22 10:24:17;;;;;;;;;;;7.40;68.30;;;;;;5093634;28;19944;-67
2021/12/22 10:26:43;;;;;;;;;;;7.50;68.00;;;;;;5075076;28;19945;-67
2021/12/22 10:29:08;;;;;;;;;;;7.60;67.30;;;;;;5093580;28;19992;-67
2021/12/22 10:31:42;;;;;;;;;;;7.80;66.80;;;;;;5093531;28;20136;-67
2021/12/22 10:34:09;;;;;;;;;;;7.90;67.20;;;;;;5093234;28;20403;-67
2021/12/22 10:36:49;;;;;;;;;;;7.90;66.90;;;;;;5093386;28;19989;-67
2021/12/22 10:39:19;;;;;;;;;;;7.90;67.70;;;;;;5093057;28;19969;-67
2021/12/22 10:41:45;;;;;;;;;;;8.10;66.20;;;;;;5093277;28;19966;-67
2021/12/22 10:44:11;;;;;;;;;;;8.20;65.90;;;;;;5093137;28;20515;-67
2021/12/22 10:46:36;;;;;;;;;;;8.30;65.70;;;;;;5093270;28;19945;-67
2021/12/22 10:49:20;;;;;;;;;;;8.40;64.10;;;;;;5093013;28;19942;-67
2021/12/22 10:53:56;;;;;;;;;;;8.60;63.10;;;;;;5131338;27;19947;-66
2021/12/22 10:56:23;;;;;;;;;;;8.60;63.00;;;;;;5131050;28;19947;-66
2021/12/22 10:58:58;;;;;;;;;;;8.60;63.30;;;;;;5116840;27;19940;-66
2021/12/22 11:01:23;;;;;;;;;;;8.70;63.70;;;;;;5127466;27;19984;-65
2021/12/22 11:03:53;;;;;;;;;;;8.70;64.50;;;;;;5123293;28;19953;-66
2021/12/22 11:06:23;;;;;;;;;;;8.80;63.30;;;;;;5110792;28;19943;-66
2021/12/22 11:09:00;;;;;;;;;;;8.90;63.50;;;;;;5115187;28;19959;-66
2021/12/22 11:11:30;;;;;;;;;;;9.00;63.20;;;;;;5131959;27;19957;-66
2021/12/22 11:14:10;;;;;;;;;;;9.20;62.00;;;;;;5137651;27;19948;-66
2021/12/22 11:16:49;;;;;;;;;;;9.40;61.20;;;;;;5151694;27;19939;-66
2021/12/22 11:19:15;;;;;;;;;;;9.60;59.90;;;;;;5149907;27;20044;-66
2021/12/22 11:24:34;;;;;;;;;;;9.90;59.80;;;;;;5128243;27;19953;-66
2021/12/22 11:27:00;;;;;;;;;;;10.00;60.00;;;;;;5136482;27;19947;-66
2021/12/22 11:29:25;;;;;;;;;;;10.30;59.20;;;;;;5146722;27;19961;-66
2021/12/22 11:31:51;;;;;;;;;;;10.50;58.40;;;;;;5130646;28;19958;-66
2021/12/22 11:34:18;;;;;;;;;;;10.80;56.80;;;;;;5137352;27;19941;-66
2021/12/22 11:36:44;;;;;;;;;;;11.00;54.80;;;;;;5151049;27;19977;-66
2021/12/22 11:39:10;;;;;;;;;;;11.10;54.40;;;;;;5147156;27;19939;-66
2021/12/22 11:41:43;;;;;;;;;;;11.30;54.20;;;;;;5150657;27;20450;-66
2021/12/22 11:44:09;;;;;;;;;;;11.90;53.20;;;;;;5150883;27;19954;-66
2021/12/22 11:46:35;;;;;;;;;;;12.40;51.40;;;;;;5149125;27;19943;-66
2021/12/22 11:49:01;;;;;;;;;;;13.10;49.60;;;;;;5148693;27;20421;-66
2021/12/22 11:51:27;;;;;;;;;;;13.80;47.50;;;;;;5150457;27;19967;-66
2021/12/22 11:53:54;;;;;;;;;;;14.00;45.60;;;;;;5142054;27;19960;-66
2021/12/22 11:56:36;;;;;;;;;;;14.40;45.40;;;;;;5150150;27;19955;-66
2021/12/22 11:59:02;;;;;;;;;;;14.90;44.10;;;;;;5150705;27;20010;-66
2021/12/22 12:01:28;;;;;;;;;;;15.40;42.40;;;;;;5145981;27;20357;-66
2021/12/22 12:04:13;;;;;;;;;;;15.70;41.50;;;;;;5139425;27;19943;-66
2021/12/22 12:06:46;;;;;;;;;;;16.10;40.70;;;;;;5115712;27;19942;-66
2021/12/22 12:09:12;;;;;;;;;;;16.40;39.70;;;;;;5121042;27;20019;-66
2021/12/22 12:11:49;;;;;;;;;;;16.60;39.60;;;;;;5118071;27;19942;-66
2021/12/22 12:23:14;;;;;;;;;;;17.50;37.00;;;;;;5136032;27;19989;-66
2021/12/22 12:25:39;;;;;;;;;;;17.90;36.40;;;;;;5135634;27;20340;-66
2021/12/22 12:28:18;;;;;;;;;;;18.30;35.00;;;;;;5117907;27;19949;-66
2021/12/22 12:30:43;;;;;;;;;;;18.10;35.10;;;;;;5114169;27;20455;-66
2021/12/22 12:33:19;;;;;;;;;;;17.40;37.10;;;;;;5116896;27;19969;-66
2021/12/22 12:35:55;;;;;;;;;;;17.50;37.00;;;;;;5129573;27;19947;-66
2021/12/22 12:38:30;;;;;;;;;;;17.50;37.10;;;;;;5135145;27;19945;-66
2021/12/22 12:41:02;;;;;;;;;;;18.40;35.60;;;;;;5135270;27;19996;-66
2021/12/22 12:43:40;;;;;;;;;;;18.80;34.50;;;;;;5135642;27;19944;-66
2021/12/22 12:46:21;;;;;;;;;;;18.70;34.50;;;;;;5134902;27;19948;-66
2021/12/22 12:49:05;;;;;;;;;;;18.80;34.60;;;;;;5135020;27;20035;-66
2021/12/22 12:51:38;;;;;;;;;;;19.50;33.20;;;;;;5109600;27;20373;-67
2021/12/22 12:54:07;;;;;;;;;;;19.00;34.20;;;;;;5134991;27;19992;-66
2021/12/22 12:56:38;;;;;;;;;;;18.70;34.80;;;;;;5134346;27;20035;-66
2021/12/22 12:59:06;;;;;;;;;;;18.30;35.50;;;;;;5133552;27;20439;-66
2021/12/22 13:01:47;;;;;;;;;;;18.30;34.90;;;;;;5134756;27;20061;-66
2021/12/22 13:04:26;;;;;;;;;;;18.20;35.20;;;;;;5124184;27;19939;-66
2021/12/22 13:06:53;;;;;;;;;;;17.90;35.70;;;;;;5130865;27;19940;-66
2021/12/22 13:09:23;;;;;;;;;;;17.60;36.10;;;;;;5130386;27;19970;-66
2021/12/22 13:11:55;;;;;;;;;;;17.80;35.90;;;;;;5110061;27;19948;-66
2021/12/22 13:17:14;;;;;;;;;;;18.30;35.90;;;;;;5129328;27;19947;-66
2021/12/22 13:19:40;;;;;;;;;;;18.30;35.20;;;;;;5129301;27;19941;-66
2021/12/22 13:22:27;;;;;;;;;;;18.30;34.70;;;;;;5122327;27;19962;-66
2021/12/22 13:25:12;;;;;;;;;;;19.00;34.10;;;;;;5133491;27;19956;-66
2021/12/22 13:27:38;;;;;;;;;;;19.90;32.50;;;;;;5130549;27;19953;-66
2021/12/22 13:30:05;;;;;;;;;;;20.50;31.30;;;;;;5126388;27;19944;-66
2021/12/22 13:32:31;;;;;;;;;;;20.40;31.30;;;;;;5131130;27;20320;-66
2021/12/22 13:34:59;;;;;;;;;;;19.70;32.50;;;;;;5126138;27;19957;-66
2021/12/22 13:37:27;;;;;;;;;;;19.40;33.40;;;;;;5136241;27;20414;-66
2021/12/22 13:39:53;;;;;;;;;;;20.20;32.00;;;;;;5111214;27;19949;-66
2021/12/22 13:42:19;;;;;;;;;;;19.80;32.60;;;;;;5130501;27;20092;-66
2021/12/22 13:44:44;;;;;;;;;;;18.60;33.90;;;;;;5092733;27;19945;-66
2021/12/22 13:47:10;;;;;;;;;;;18.30;35.10;;;;;;5107896;27;20331;-66
2021/12/22 13:49:36;;;;;;;;;;;18.20;35.20;;;;;;5109778;27;19948;-66
2021/12/22 13:52:02;;;;;;;;;;;19.30;33.70;;;;;;5111788;27;20121;-66
2021/12/22 13:54:28;;;;;;;;;;;19.60;33.40;;;;;;5127923;27;20043;-66
2021/12/22 13:57:02;;;;;;;;;;;18.60;34.50;;;;;;5135069;27;20042;-66
2021/12/22 13:59:31;;;;;;;;;;;17.80;35.60;;;;;;5131871;27;20653;-66
2021/12/22 14:01:58;;;;;;;;;;;17.40;37.00;;;;;;5130287;27;19954;-66
2021/12/22 14:04:38;;;;;;;;;;;17.90;36.30;;;;;;5131585;27;19942;-66
2021/12/22 14:07:09;;;;;;;;;;;18.80;34.60;;;;;;5126830;27;20001;-66
2021/12/22 14:09:45;;;;;;;;;;;18.40;34.20;;;;;;5126541;27;19989;-66
2021/12/22 14:12:20;;;;;;;;;;;17.80;35.50;;;;;;5124305;27;19976;-66
2021/12/22 14:14:46;;;;;;;;;;;17.90;35.60;;;;;;5129756;27;19990;-66
2021/12/22 14:17:20;;;;;;;;;;;18.00;34.90;;;;;;5132286;27;19944;-66
2021/12/22 14:19:48;;;;;;;;;;;18.10;35.00;;;;;;5130164;27;19984;-65
2021/12/22 14:22:16;;;;;;;;;;;17.90;35.40;;;;;;5127331;27;19953;-66
2021/12/22 14:25:01;;;;;;;;;;;17.60;35.80;;;;;;5128527;27;19953;-66
2021/12/22 14:27:45;;;;;;;;;;;18.00;35.30;;;;;;5084035;28;19963;-66
2021/12/22 14:30:29;;;;;;;;;;;17.50;35.70;;;;;;5083970;28;20036;-66
2021/12/22 14:33:02;;;;;;;;;;;17.10;37.20;;;;;;5073270;28;19963;-66
2021/12/22 14:35:41;;;;;;;;;;;16.90;37.50;;;;;;5083268;28;19946;-66
2021/12/22 14:38:17;;;;;;;;;;;16.10;39.40;;;;;;5084538;28;19975;-67
2021/12/22 14:41:10;;;;;;;;;;;15.90;39.60;;;;;;5065288;28;20005;-66
2021/12/22 14:43:38;;;;;;;;;;;15.80;40.20;;;;;;5085164;28;19940;-66
2021/12/22 14:46:04;;;;;;;;;;;15.40;41.00;;;;;;5079812;28;19937;-66
2021/12/22 14:48:33;;;;;;;;;;;16.30;38.80;;;;;;5084414;28;19945;-66
2021/12/22 14:51:00;;;;;;;;;;;16.00;39.40;;;;;;5068619;28;19996;-66
2021/12/22 14:53:30;;;;;;;;;;;15.30;40.20;;;;;;5077854;28;20010;-66
2021/12/22 14:55:57;;;;;;;;;;;15.00;41.20;;;;;;5083282;28;20022;-65
2021/12/22 14:58:23;;;;;;;;;;;14.70;41.80;;;;;;5106036;28;20115;-65
2021/12/22 15:00:49;;;;;;;;;;;14.40;42.50;;;;;;5128061;28;19946;-66
2021/12/22 15:03:15;;;;;;;;;;;14.00;43.90;;;;;;5136012;27;19941;-66